Ana Sayfa
METAR-TAF:

METAR-TAF

Havaalanları :

Nowra, Avustralya

Enlem: 34-57S, Boylam: 150-32E, yükseklik: 122 m

Güncel hava durumu gözlemi

Rapor saat 13:00 UTC de 1 saat ve 12 dakika önce yapıldı.
Rüzgar güneydoğudan 3 kt
Sıcaklık 19°C
Nem 73%
Basınç 1017 hPa
Görüş mesafesi 10 km veya daha fazla
3500 ft yükseklikte parçalı bulutlu
4600 ft yükseklikte çok bulutlu

METAR: YSNW 281300Z AUTO 13003KT 9999 // SCT035 OVC046 19/14 Q1017

Saat: 01:12 (14:12 UTC)


TAF: eksik

4.000'den fazla havaalanı için hava durumu gözlemleri ve tahminleri (METAR ve TAF raporları).

Kullanılabilir istasyonlar harita üzerinde sarı ve kırmızı noktalarla gösterilir.

İstasyonun adını görmek için fareyi noktanın üzerinde gezdirin.

Sonrasında hava gözlem ve tahminlerini görmek için tıklayın.

Haritayı değiştirmek için: yaklaştırmak için siyah artı işaretli yeşil düğmeye ve uzaklaştırmak için de eksi işaretli düğmeye hızla tıklayın; bitişik haritalar için yeşil okları kullanın.


METAR-TAF: